Terminal Aerodrome Forecast
Issued by NWS

Home | Current Version | Previous Version | Graphics & Text | Print | Product List | Glossary On
Versions: 1 2 3 4 5 6 7 8 9 10 11 12 13 14
000
FTUS43 KBIS 010251 AAB
TAFDIK
TAF AMD
KDIK 010251Z 0103/0124 36017G23KT 6SM -TSRA SCT020CB BKN027
     FM010330 11006KT P6SM -SHRA VCTS BKN050CB OVC100
     FM010600 06005KT P6SM SCT100
     FM011500 34007KT P6SM SCT100=

USA.gov is the U.S. government's official web portal to all federal, state and local government web resources and services.